Time;durP1;ratioP1;P1;durP2;ratioP2;P2;SDS_P1;SDS_P2;PMS_P1;PMS_P2;Temp;Humidity;BMP_temperature;BMP_pressure;BME280_temperature;BME280_humidity;BME280_pressure;Samples;Min_cycle;Max_cycle;Signal;HPM_P1;HPM_P2
2022/11/09 00:01:17;;;;;;;1.10;0.90;;;24.80;62.20;;;;;;5074391;28;20791;-86
2022/11/09 00:03:46;;;;;;;1.40;1.10;;;24.80;61.30;;;;;;5074193;28;20945;-87
2022/11/09 00:06:13;;;;;;;2.90;1.20;;;24.80;61.30;;;;;;5074113;28;20530;-86
2022/11/09 00:08:41;;;;;;;1.10;0.93;;;24.80;61.30;;;;;;5073958;28;20448;-86
2022/11/09 00:11:10;;;;;;;1.00;0.90;;;24.80;62.20;;;;;;5074679;28;20591;-86
2022/11/09 00:13:38;;;;;;;1.13;0.90;;;24.80;61.30;;;;;;5074370;28;20806;-86
2022/11/09 00:16:06;;;;;;;1.77;1.00;;;24.80;61.30;;;;;;5074841;28;20450;-87
2022/11/09 00:18:34;;;;;;;1.10;0.90;;;24.80;61.30;;;;;;5074814;28;20573;-86
2022/11/09 00:21:07;;;;;;;1.00;0.83;;;24.80;61.20;;;;;;5074990;28;20496;-86
2022/11/09 00:23:34;;;;;;;1.00;0.70;;;24.80;61.20;;;;;;5075502;28;21017;-86
2022/11/09 00:26:01;;;;;;;1.73;0.83;;;24.80;61.30;;;;;;5075175;28;20470;-86
2022/11/09 00:28:28;;;;;;;1.10;0.90;;;24.80;61.20;;;;;;5076515;28;20443;-86
2022/11/09 00:30:59;;;;;;;1.00;0.90;;;24.80;62.10;;;;;;5084003;28;20429;-86
2022/11/09 00:33:26;;;;;;;1.30;1.20;;;24.80;61.20;;;;;;5078540;28;20439;-86
2022/11/09 00:35:53;;;;;;;1.27;0.90;;;24.80;61.20;;;;;;5075195;28;20509;-86
2022/11/09 00:38:21;;;;;;;1.13;1.03;;;24.80;61.20;;;;;;5075497;28;20478;-86
2022/11/09 00:40:48;;;;;;;1.10;0.80;;;24.80;61.20;;;;;;5074498;28;20479;-86
2022/11/09 00:43:16;;;;;;;1.10;0.80;;;24.80;61.20;;;;;;5074675;28;20518;-86
2022/11/09 00:45:42;;;;;;;1.53;1.00;;;24.80;61.20;;;;;;5074441;28;20545;-86
2022/11/09 00:48:10;;;;;;;1.23;0.90;;;24.80;61.20;;;;;;5073996;28;20528;-86
2022/11/09 00:50:37;;;;;;;3.87;0.80;;;24.80;61.20;;;;;;5073830;28;20572;-86
2022/11/09 00:53:04;;;;;;;1.73;1.07;;;24.80;61.20;;;;;;5073838;28;20462;-87
2022/11/09 00:55:32;;;;;;;1.47;1.17;;;24.80;61.20;;;;;;5074179;28;20441;-86
2022/11/09 00:57:59;;;;;;;1.20;0.90;;;24.80;61.20;;;;;;5074315;28;20482;-86
2022/11/09 01:00:26;;;;;;;1.40;1.00;;;24.80;61.20;;;;;;5074620;28;20538;-86
2022/11/09 01:02:53;;;;;;;1.10;0.90;;;24.80;62.10;;;;;;5074291;28;20443;-86
2022/11/09 01:05:20;;;;;;;1.20;1.10;;;24.80;61.20;;;;;;5074322;28;20470;-86
2022/11/09 01:07:47;;;;;;;1.10;0.90;;;24.80;61.20;;;;;;5074206;28;20795;-86
2022/11/09 01:10:13;;;;;;;1.03;0.90;;;24.80;61.10;;;;;;5075638;28;20591;-86
2022/11/09 01:12:42;;;;;;;0.90;0.70;;;24.80;61.10;;;;;;5102313;28;20522;-87
2022/11/09 01:15:09;;;;;;;1.13;1.00;;;24.80;61.20;;;;;;5091888;28;20861;-86
2022/11/09 01:17:36;;;;;;;0.90;0.80;;;24.80;61.20;;;;;;5101256;28;20474;-87
2022/11/09 01:20:04;;;;;;;1.20;0.90;;;24.80;61.20;;;;;;5081991;28;20507;-87
2022/11/09 01:22:31;;;;;;;1.20;1.00;;;24.80;61.20;;;;;;5078838;28;20538;-86
2022/11/09 01:24:57;;;;;;;1.10;0.90;;;24.80;61.20;;;;;;5079802;28;20494;-86
2022/11/09 01:27:24;;;;;;;1.10;0.90;;;24.80;61.20;;;;;;5079132;28;20469;-87
2022/11/09 01:29:52;;;;;;;0.90;0.70;;;24.80;61.20;;;;;;5077929;28;20536;-86
2022/11/09 01:32:19;;;;;;;1.07;0.90;;;24.80;61.20;;;;;;5077922;28;20464;-86
2022/11/09 01:34:46;;;;;;;1.13;0.90;;;24.80;61.20;;;;;;5077467;28;20478;-87
2022/11/09 01:37:13;;;;;;;1.10;0.73;;;24.80;61.20;;;;;;5077497;28;20485;-86
2022/11/09 01:39:40;;;;;;;1.00;0.70;;;24.80;61.30;;;;;;5077525;28;20447;-86
2022/11/09 01:42:07;;;;;;;1.30;0.90;;;24.80;61.20;;;;;;5077501;28;20526;-86
2022/11/09 01:44:37;;;;;;;1.10;0.97;;;24.80;61.20;;;;;;5077268;28;20446;-87
2022/11/09 01:47:12;;;;;;;1.00;0.77;;;24.80;61.20;;;;;;5077375;28;20442;-86
2022/11/09 01:49:45;;;;;;;1.03;0.83;;;24.80;61.20;;;;;;5077018;28;20770;-86
2022/11/09 01:52:17;;;;;;;1.10;0.87;;;24.80;61.20;;;;;;5076567;28;20845;-86
2022/11/09 01:54:48;;;;;;;1.03;0.73;;;24.80;61.20;;;;;;5077059;28;20524;-86
2022/11/09 01:57:19;;;;;;;1.00;0.90;;;24.80;61.20;;;;;;5077175;28;20534;-86
2022/11/09 01:59:51;;;;;;;1.00;0.90;;;24.70;61.10;;;;;;5076902;28;20448;-86
2022/11/09 02:02:20;;;;;;;1.10;0.80;;;24.80;61.20;;;;;;5076927;28;20840;-86
2022/11/09 02:04:51;;;;;;;1.00;0.80;;;24.70;61.10;;;;;;5076850;28;20534;-86
2022/11/09 02:07:19;;;;;;;1.10;0.90;;;24.70;61.90;;;;;;5076647;28;20442;-86
2022/11/09 02:09:51;;;;;;;1.10;0.93;;;24.80;61.20;;;;;;5076929;28;20485;-86
2022/11/09 02:12:20;;;;;;;0.93;0.73;;;24.80;61.20;;;;;;5076566;28;20437;-86
2022/11/09 02:14:50;;;;;;;1.00;0.80;;;24.70;61.00;;;;;;5076818;28;20440;-86
2022/11/09 02:17:19;;;;;;;1.13;1.00;;;24.70;61.10;;;;;;5076195;28;20549;-86
2022/11/09 02:19:46;;;;;;;1.10;0.90;;;24.80;61.20;;;;;;5076607;28;20548;-86
2022/11/09 02:22:15;;;;;;;1.20;0.90;;;24.70;61.10;;;;;;5076617;28;20920;-87
2022/11/09 02:24:41;;;;;;;1.07;0.80;;;24.80;61.20;;;;;;5075904;28;20442;-86
2022/11/09 02:27:08;;;;;;;1.00;0.80;;;24.70;61.90;;;;;;5076317;28;20478;-86
2022/11/09 02:29:38;;;;;;;1.20;0.90;;;24.70;61.10;;;;;;5076198;28;20460;-86
2022/11/09 02:32:09;;;;;;;1.37;1.07;;;24.70;61.10;;;;;;5076528;28;20471;-86
2022/11/09 02:34:36;;;;;;;1.00;0.80;;;24.70;61.10;;;;;;5076194;28;20439;-86
2022/11/09 02:37:03;;;;;;;1.27;0.90;;;24.70;61.00;;;;;;5076168;28;21020;-86
2022/11/09 02:39:32;;;;;;;1.10;0.80;;;24.70;61.10;;;;;;5075922;28;20578;-86
2022/11/09 02:42:02;;;;;;;1.00;0.73;;;24.70;61.10;;;;;;5076102;28;20438;-86
2022/11/09 02:44:32;;;;;;;1.07;0.80;;;24.70;61.10;;;;;;5076142;28;20534;-86
2022/11/09 02:46:59;;;;;;;1.00;0.80;;;24.70;61.00;;;;;;5075990;28;20510;-87
2022/11/09 02:49:26;;;;;;;1.00;0.90;;;24.80;61.20;;;;;;5075941;28;20550;-86
2022/11/09 02:51:53;;;;;;;1.40;0.93;;;24.70;62.00;;;;;;5075657;28;20538;-86
2022/11/09 02:54:20;;;;;;;1.00;0.80;;;24.70;62.00;;;;;;5075903;28;20530;-86
2022/11/09 02:56:48;;;;;;;1.03;0.77;;;24.70;61.00;;;;;;5075725;28;20524;-87
2022/11/09 02:59:15;;;;;;;1.00;0.80;;;24.70;61.10;;;;;;5075708;28;20597;-86
2022/11/09 03:01:41;;;;;;;1.50;1.00;;;24.70;61.90;;;;;;5076538;28;20474;-86
2022/11/09 03:04:08;;;;;;;0.97;0.77;;;24.70;61.10;;;;;;5075956;28;20434;-86
2022/11/09 03:06:35;;;;;;;1.10;0.80;;;24.70;61.10;;;;;;5077574;28;20442;-86
2022/11/09 03:09:03;;;;;;;1.10;1.00;;;24.70;61.10;;;;;;5085445;28;20644;-86
2022/11/09 03:11:30;;;;;;;1.10;0.80;;;24.70;61.10;;;;;;5077191;28;20435;-87
2022/11/09 03:13:59;;;;;;;1.10;0.90;;;24.70;62.00;;;;;;5075154;28;20504;-86
2022/11/09 03:16:25;;;;;;;1.00;0.80;;;24.70;61.10;;;;;;5075109;28;21076;-86
2022/11/09 03:18:52;;;;;;;1.00;0.80;;;24.70;61.10;;;;;;5074825;28;21047;-86
2022/11/09 03:21:20;;;;;;;1.30;0.83;;;24.70;61.10;;;;;;5074828;28;20451;-87
2022/11/09 03:23:48;;;;;;;1.90;0.93;;;24.70;61.10;;;;;;5074355;28;20816;-86
2022/11/09 03:26:15;;;;;;;1.00;0.70;;;24.70;61.10;;;;;;5074756;28;20538;-86
2022/11/09 03:28:42;;;;;;;1.00;0.80;;;24.70;62.00;;;;;;5074889;28;20864;-86
2022/11/09 03:31:10;;;;;;;1.07;0.90;;;24.70;61.10;;;;;;5074874;28;20446;-86
2022/11/09 03:33:37;;;;;;;1.20;0.87;;;24.70;61.10;;;;;;5073624;28;20838;-86
2022/11/09 03:36:05;;;;;;;1.00;0.90;;;24.70;61.10;;;;;;5074642;28;20941;-86
2022/11/09 03:38:32;;;;;;;3.83;0.83;;;24.70;61.10;;;;;;5057017;28;20495;-86
2022/11/09 03:41:00;;;;;;;1.10;1.00;;;24.70;61.10;;;;;;5074552;28;20524;-87
2022/11/09 03:43:27;;;;;;;1.10;0.80;;;24.70;61.10;;;;;;5074506;28;20522;-86
2022/11/09 03:45:55;;;;;;;1.10;0.90;;;24.70;61.10;;;;;;5074129;28;20950;-86
2022/11/09 03:48:23;;;;;;;0.97;0.80;;;24.70;61.10;;;;;;5074486;28;20820;-87
2022/11/09 03:50:50;;;;;;;1.00;0.80;;;24.70;62.00;;;;;;5074103;28;20470;-87
2022/11/09 03:53:17;;;;;;;1.00;0.80;;;24.70;61.10;;;;;;5054518;28;20464;-86
2022/11/09 03:55:44;;;;;;;1.00;0.70;;;24.70;61.20;;;;;;5054725;28;20446;-86
2022/11/09 03:58:12;;;;;;;1.23;0.90;;;24.70;61.10;;;;;;5054782;28;20570;-87
2022/11/09 04:00:39;;;;;;;0.90;0.80;;;24.70;61.10;;;;;;5054394;28;20447;-87
2022/11/09 04:03:06;;;;;;;1.00;0.77;;;24.70;61.20;;;;;;5054319;28;20447;-87
2022/11/09 04:05:34;;;;;;;1.00;0.80;;;24.70;61.10;;;;;;5054408;28;20539;-86
2022/11/09 04:08:01;;;;;;;1.20;0.80;;;24.70;61.10;;;;;;5054235;28;20541;-86
2022/11/09 04:10:28;;;;;;;1.63;0.80;;;24.70;61.20;;;;;;5054543;28;20448;-87
2022/11/09 04:12:55;;;;;;;1.00;0.70;;;24.70;61.10;;;;;;5054252;28;20447;-86
2022/11/09 04:15:22;;;;;;;1.20;0.80;;;24.70;61.10;;;;;;5054522;28;20481;-86
2022/11/09 04:17:55;;;;;;;1.00;0.70;;;24.70;61.20;;;;;;5056090;28;20520;-86
2022/11/09 04:20:22;;;;;;;0.90;0.80;;;24.70;61.10;;;;;;5067659;28;20437;-86
2022/11/09 04:22:56;;;;;;;1.00;0.70;;;24.70;61.10;;;;;;5076790;28;20539;-88
2022/11/09 04:25:24;;;;;;;1.30;0.90;;;24.70;61.10;;;;;;5075438;28;20465;-87
2022/11/09 04:27:55;;;;;;;1.27;0.90;;;24.60;61.10;;;;;;5073898;28;20454;-87
2022/11/09 04:30:22;;;;;;;1.40;1.10;;;24.70;61.20;;;;;;5073637;28;20537;-87
2022/11/09 04:32:49;;;;;;;1.00;0.80;;;24.60;61.10;;;;;;5073555;28;20457;-87
2022/11/09 04:35:16;;;;;;;1.00;0.80;;;24.60;61.00;;;;;;5062945;28;20483;-86
2022/11/09 04:37:44;;;;;;;1.10;0.90;;;24.70;61.20;;;;;;5067235;28;20450;-87
2022/11/09 04:40:13;;;;;;;1.10;0.80;;;24.70;61.20;;;;;;5052928;28;20511;-87
2022/11/09 04:42:40;;;;;;;1.00;0.70;;;24.60;61.10;;;;;;5053638;28;20434;-86
2022/11/09 04:45:08;;;;;;;1.20;0.90;;;24.70;61.20;;;;;;5053504;28;20452;-86
2022/11/09 04:47:35;;;;;;;1.20;0.80;;;24.60;61.00;;;;;;5058879;28;20462;-86
2022/11/09 04:50:02;;;;;;;0.93;0.70;;;24.60;61.10;;;;;;5061252;28;20458;-87
2022/11/09 04:52:28;;;;;;;1.10;0.80;;;24.70;61.20;;;;;;5073889;28;20469;-86
2022/11/09 04:54:55;;;;;;;1.37;0.90;;;24.60;61.10;;;;;;5073747;28;20453;-86
2022/11/09 04:57:23;;;;;;;1.07;0.90;;;24.60;61.10;;;;;;5073810;28;20455;-86
2022/11/09 04:59:50;;;;;;;1.10;0.77;;;24.70;61.20;;;;;;5073768;28;21017;-86
2022/11/09 05:02:17;;;;;;;1.10;0.70;;;24.60;61.10;;;;;;5073170;28;20465;-86
2022/11/09 05:04:44;;;;;;;1.23;0.70;;;24.60;61.10;;;;;;5073509;28;20814;-86
2022/11/09 05:07:11;;;;;;;1.07;0.90;;;24.60;61.10;;;;;;5073643;28;20439;-86
2022/11/09 05:09:37;;;;;;;1.00;0.80;;;24.60;61.10;;;;;;5073373;28;20456;-86
2022/11/09 05:12:05;;;;;;;1.20;0.90;;;24.80;61.30;;;;;;5072061;28;20446;-86
2022/11/09 05:14:33;;;;;;;1.10;0.90;;;24.70;61.20;;;;;;5073238;28;20446;-86
2022/11/09 05:17:00;;;;;;;1.10;1.00;;;24.60;61.10;;;;;;5073282;28;20771;-86
2022/11/09 05:19:27;;;;;;;1.00;0.73;;;24.60;61.10;;;;;;5073302;28;20486;-86
2022/11/09 05:21:54;;;;;;;1.00;0.77;;;24.60;61.10;;;;;;5072891;28;20575;-86
2022/11/09 05:24:19;;;;;;;1.70;0.80;;;24.60;61.10;;;;;;5071900;28;20446;-86
2022/11/09 05:26:46;;;;;;;1.10;0.90;;;24.60;61.10;;;;;;5072636;28;20533;-86
2022/11/09 05:29:13;;;;;;;1.00;0.70;;;24.60;61.10;;;;;;5073417;28;20200;-86
2022/11/09 05:31:41;;;;;;;1.10;0.80;;;24.60;61.10;;;;;;5073099;28;20448;-86
2022/11/09 05:34:13;;;;;;;1.00;0.80;;;24.60;61.20;;;;;;5073434;28;20485;-86
2022/11/09 05:36:39;;;;;;;1.10;0.70;;;24.60;61.10;;;;;;5073102;28;20445;-86
2022/11/09 05:39:06;;;;;;;1.10;0.90;;;24.60;61.20;;;;;;5072914;28;20489;-86
2022/11/09 05:41:33;;;;;;;0.93;0.80;;;24.60;61.10;;;;;;5072980;28;20446;-86
2022/11/09 05:44:00;;;;;;;1.43;0.80;;;24.60;61.20;;;;;;5072971;28;20447;-86
2022/11/09 05:46:27;;;;;;;1.00;0.70;;;24.60;61.10;;;;;;5079614;28;20435;-86
2022/11/09 05:48:56;;;;;;;1.10;0.70;;;24.60;61.10;;;;;;5080078;28;20442;-86
2022/11/09 05:51:22;;;;;;;1.30;0.87;;;24.60;61.10;;;;;;5074745;28;20491;-86
2022/11/09 05:53:49;;;;;;;1.27;0.97;;;24.60;61.20;;;;;;5075740;28;20473;-86
2022/11/09 05:56:16;;;;;;;1.00;0.80;;;24.60;61.10;;;;;;5097742;28;20439;-87
2022/11/09 05:58:43;;;;;;;1.00;0.80;;;24.60;61.20;;;;;;5101112;28;20462;-86
2022/11/09 06:01:12;;;;;;;0.93;0.80;;;24.60;61.10;;;;;;5101606;28;20461;-87
2022/11/09 06:03:40;;;;;;;1.40;0.90;;;24.60;61.20;;;;;;5077978;28;20525;-86
2022/11/09 06:06:12;;;;;;;1.00;0.87;;;24.60;61.20;;;;;;5076449;28;20446;-86
2022/11/09 06:08:41;;;;;;;1.00;0.73;;;24.60;61.20;;;;;;5076294;28;20453;-86
2022/11/09 06:11:11;;;;;;;1.17;0.93;;;24.60;61.20;;;;;;5076629;28;20446;-86
2022/11/09 06:13:38;;;;;;;1.00;0.80;;;24.60;61.20;;;;;;5077612;28;20442;-85
2022/11/09 06:16:06;;;;;;;1.13;1.03;;;24.60;61.20;;;;;;5076763;28;20528;-86
2022/11/09 06:18:35;;;;;;;1.00;0.73;;;24.60;61.20;;;;;;5077379;28;20461;-86
2022/11/09 06:21:04;;;;;;;1.30;0.90;;;24.60;61.30;;;;;;5076758;28;20449;-86
2022/11/09 06:23:33;;;;;;;1.30;1.00;;;24.60;61.30;;;;;;5077126;28;20475;-86
2022/11/09 06:26:02;;;;;;;1.50;1.20;;;24.60;61.30;;;;;;5059514;28;20454;-86
2022/11/09 06:28:29;;;;;;;0.97;0.70;;;24.50;61.20;;;;;;5077050;28;20446;-87
2022/11/09 06:30:58;;;;;;;1.10;0.90;;;24.60;61.40;;;;;;5079443;28;20447;-86
2022/11/09 06:33:25;;;;;;;0.93;0.70;;;24.60;61.40;;;;;;5081163;28;20482;-87
2022/11/09 06:35:51;;;;;;;1.00;0.80;;;24.50;61.20;;;;;;5076990;28;20441;-87
2022/11/09 06:38:18;;;;;;;1.10;0.87;;;24.60;61.40;;;;;;5077943;28;20443;-87
2022/11/09 06:40:50;;;;;;;1.00;0.80;;;24.60;61.40;;;;;;5077459;28;20530;-87
2022/11/09 06:43:17;;;;;;;1.00;0.80;;;24.60;61.40;;;;;;5076863;28;20485;-87
2022/11/09 06:45:44;;;;;;;1.10;0.90;;;24.60;61.40;;;;;;5076706;28;20905;-86
2022/11/09 06:48:12;;;;;;;1.00;0.80;;;24.50;61.30;;;;;;5078106;28;20441;-86
2022/11/09 06:50:38;;;;;;;1.10;1.00;;;24.60;61.50;;;;;;5056738;28;20476;-86
2022/11/09 06:53:07;;;;;;;1.10;0.90;;;24.50;61.50;;;;;;5055800;28;20472;-86
2022/11/09 06:55:35;;;;;;;1.00;0.80;;;24.60;61.50;;;;;;5055701;28;20457;-86
2022/11/09 06:58:07;;;;;;;0.90;0.80;;;24.60;61.50;;;;;;5055997;28;20565;-86
2022/11/09 07:00:34;;;;;;;1.10;0.80;;;24.60;61.50;;;;;;5056023;28;20510;-86
2022/11/09 07:03:01;;;;;;;1.10;0.80;;;24.60;61.60;;;;;;5056059;28;20560;-87
2022/11/09 07:05:27;;;;;;;1.40;1.00;;;24.60;61.70;;;;;;5056246;28;20801;-85
2022/11/09 07:07:54;;;;;;;1.00;0.80;;;24.60;61.90;;;;;;5055184;28;20447;-86
2022/11/09 07:10:21;;;;;;;0.90;0.70;;;24.50;61.90;;;;;;5055121;28;20451;-86
2022/11/09 07:12:48;;;;;;;1.00;0.80;;;24.60;62.10;;;;;;5055937;28;20452;-86
2022/11/09 07:15:17;;;;;;;1.13;0.83;;;24.40;61.90;;;;;;5055618;28;20442;-86
2022/11/09 07:17:44;;;;;;;1.10;0.80;;;24.60;62.20;;;;;;5055517;28;20933;-86
2022/11/09 07:20:13;;;;;;;1.07;0.77;;;24.60;62.20;;;;;;5055698;28;20487;-86
2022/11/09 07:22:40;;;;;;;1.00;0.60;;;24.60;62.20;;;;;;5055688;28;20475;-86
2022/11/09 07:25:09;;;;;;;1.97;0.60;;;24.60;62.20;;;;;;5055602;28;20442;-86
2022/11/09 07:27:36;;;;;;;0.90;0.70;;;24.60;62.30;;;;;;5055810;28;20803;-87
2022/11/09 07:30:04;;;;;;;1.10;0.70;;;24.60;62.30;;;;;;5055798;28;20470;-86
2022/11/09 07:32:34;;;;;;;1.20;0.90;;;24.60;62.40;;;;;;5055091;28;20441;-86
2022/11/09 07:35:01;;;;;;;1.17;0.80;;;24.60;62.60;;;;;;5055283;28;20440;-87
2022/11/09 07:37:28;;;;;;;1.00;0.70;;;24.60;62.80;;;;;;5055042;28;20946;-86
2022/11/09 07:39:55;;;;;;;1.00;0.70;;;24.60;62.60;;;;;;5054886;28;20632;-86
2022/11/09 07:42:22;;;;;;;3.67;0.80;;;24.50;62.50;;;;;;5055005;28;20667;-86
2022/11/09 07:44:49;;;;;;;2.60;1.00;;;24.60;62.50;;;;;;5054945;28;20453;-91
2022/11/09 07:47:17;;;;;;;1.00;0.80;;;24.60;62.50;;;;;;5055041;28;20455;-91
2022/11/09 07:49:45;;;;;;;1.43;1.07;;;24.60;63.40;;;;;;5055921;28;20823;-92
2022/11/09 07:52:12;;;;;;;3.47;1.00;;;24.60;62.70;;;;;;5055585;28;20470;-92
2022/11/09 07:54:40;;;;;;;2.80;1.00;;;24.70;62.80;;;;;;5055855;28;20539;-92
2022/11/09 07:57:07;;;;;;;1.10;0.87;;;24.60;62.50;;;;;;5055449;28;20535;-93
2022/11/09 07:59:37;;;;;;;4.83;0.87;;;24.60;62.50;;;;;;5055470;28;20466;-94
2022/11/09 08:02:04;;;;;;;1.00;0.70;;;24.60;62.50;;;;;;5055613;28;20439;-94
2022/11/09 08:04:31;;;;;;;1.60;1.00;;;24.60;62.40;;;;;;5055818;28;20451;-94
2022/11/09 08:06:59;;;;;;;2.20;1.00;;;24.80;62.70;;;;;;5055513;28;20534;-93
2022/11/09 08:09:26;;;;;;;1.93;0.80;;;24.70;62.40;;;;;;5055023;28;20448;-93
2022/11/09 08:11:53;;;;;;;3.70;0.90;;;24.70;62.40;;;;;;5055114;28;20864;-94
2022/11/09 08:14:20;;;;;;;3.63;0.90;;;24.70;62.40;;;;;;5055074;28;20483;-94
2022/11/09 08:16:47;;;;;;;1.40;1.00;;;24.70;62.40;;;;;;5055226;28;20783;-94
2022/11/09 08:19:14;;;;;;;2.50;0.93;;;24.70;62.40;;;;;;5054644;28;20482;-94
2022/11/09 08:21:41;;;;;;;1.30;1.00;;;24.90;62.60;;;;;;5054707;28;20506;-94
2022/11/09 08:24:09;;;;;;;2.90;0.90;;;24.70;62.40;;;;;;5054627;28;20452;-94
2022/11/09 08:26:36;;;;;;;1.00;0.77;;;24.80;62.70;;;;;;5055022;28;20450;-94
2022/11/09 08:29:03;;;;;;;2.77;1.10;;;24.80;62.70;;;;;;5076904;28;20490;-93
2022/11/09 08:31:31;;;;;;;8.60;1.67;;;24.80;62.90;;;;;;5072686;28;20440;-94
2022/11/09 08:33:58;;;;;;;4.00;1.30;;;24.80;62.50;;;;;;5055834;28;20543;-93
2022/11/09 08:36:27;;;;;;;4.90;1.53;;;24.80;62.50;;;;;;5054468;28;20460;-93
2022/11/09 08:38:54;;;;;;;5.83;2.10;;;24.80;62.30;;;;;;5054443;28;20461;-94
2022/11/09 08:41:22;;;;;;;6.93;2.20;;;24.80;62.30;;;;;;5054335;28;20853;-94
2022/11/09 08:43:49;;;;;;;3.00;1.30;;;24.80;62.30;;;;;;5054187;28;20447;-89
2022/11/09 08:46:16;;;;;;;4.93;1.43;;;24.90;62.20;;;;;;5054320;28;20448;-96
2022/11/09 08:48:43;;;;;;;3.70;1.40;;;24.90;61.50;;;;;;5054884;28;20534;-94
2022/11/09 08:51:10;;;;;;;4.57;1.77;;;25.00;61.50;;;;;;5066145;28;20481;-94
2022/11/09 08:53:37;;;;;;;3.73;1.70;;;25.00;62.10;;;;;;5074984;28;20475;-95
2022/11/09 08:56:06;;;;;;;2.60;1.63;;;25.10;62.90;;;;;;5074075;28;20458;-86
2022/11/09 08:58:35;;;;;;;6.40;1.60;;;25.10;63.00;;;;;;5074160;28;20448;-94
2022/11/09 09:01:05;;;;;;;12.30;1.97;;;25.20;62.00;;;;;;5073813;28;20498;-93
2022/11/09 09:03:32;;;;;;;4.10;1.50;;;25.20;62.50;;;;;;5077043;28;20526;-93
2022/11/09 09:06:03;;;;;;;3.00;1.40;;;25.30;63.50;;;;;;5074262;28;20447;-92
2022/11/09 09:08:30;;;;;;;2.13;1.33;;;25.50;63.20;;;;;;5056850;28;20448;-95
2022/11/09 09:10:57;;;;;;;4.03;1.50;;;25.60;62.20;;;;;;5074815;28;20546;-94
2022/11/09 09:13:24;;;;;;;7.83;1.30;;;25.80;62.00;;;;;;5078678;28;20547;-95
2022/11/09 09:15:53;;;;;;;2.90;1.67;;;25.90;61.50;;;;;;5079634;28;20483;-95
2022/11/09 09:18:20;;;;;;;5.73;1.80;;;26.10;61.00;;;;;;5078353;28;20444;-92
2022/11/09 09:20:47;;;;;;;1.90;1.30;;;26.30;60.60;;;;;;5077500;28;20488;-94
2022/11/09 09:23:15;;;;;;;5.57;1.50;;;26.60;60.00;;;;;;5077943;28;20469;-94
2022/11/09 09:25:42;;;;;;;2.43;1.60;;;26.80;59.70;;;;;;5077185;28;20452;-94
2022/11/09 09:28:10;;;;;;;1.30;1.20;;;26.80;59.10;;;;;;5079731;28;20835;-93
2022/11/09 09:30:37;;;;;;;1.70;1.03;;;27.20;59.00;;;;;;5080383;28;20475;-94
2022/11/09 09:33:05;;;;;;;2.00;1.00;;;27.40;58.70;;;;;;5082317;28;20494;-94
2022/11/09 09:35:33;;;;;;;1.30;1.20;;;27.60;58.30;;;;;;5083852;28;20550;-94
2022/11/09 09:38:00;;;;;;;2.97;1.30;;;27.80;58.10;;;;;;5083966;28;20457;-95
2022/11/09 09:40:33;;;;;;;1.67;1.20;;;27.90;57.90;;;;;;5086112;28;20965;-95
2022/11/09 09:43:01;;;;;;;1.77;1.30;;;28.20;57.50;;;;;;5083257;28;20477;-94
2022/11/09 09:45:31;;;;;;;3.33;1.20;;;28.30;57.30;;;;;;5083429;28;20477;-95
2022/11/09 09:48:03;;;;;;;1.40;1.10;;;28.50;57.10;;;;;;5084021;28;20504;-94
2022/11/09 09:50:37;;;;;;;3.33;1.10;;;28.60;57.00;;;;;;5083245;28;20480;-94
2022/11/09 09:53:14;;;;;;;2.53;1.23;;;28.60;56.80;;;;;;5084021;28;20478;-93
2022/11/09 09:55:45;;;;;;;2.90;1.30;;;28.60;56.80;;;;;;5083075;28;20431;-94
2022/11/09 09:58:18;;;;;;;1.93;1.40;;;28.60;56.70;;;;;;5080280;28;20431;-96
2022/11/09 10:00:45;;;;;;;5.63;1.17;;;28.60;56.80;;;;;;5078877;28;20501;-96
2022/11/09 10:03:17;;;;;;;5.30;1.23;;;28.40;56.90;;;;;;5077833;28;20535;-93
2022/11/09 10:05:53;;;;;;;4.97;1.43;;;28.30;56.50;;;;;;5078426;28;20810;-94
2022/11/09 10:08:27;;;;;;;1.40;1.03;;;28.30;56.80;;;;;;5078766;28;20450;-95
2022/11/09 10:11:05;;;;;;;3.10;1.30;;;28.40;56.70;;;;;;5078436;28;20442;-94
2022/11/09 10:13:55;;;;;;;1.73;0.90;;;28.40;56.50;;;;;;5078671;28;20444;-93
2022/11/09 10:16:34;;;;;;;2.33;1.00;;;28.30;56.80;;;;;;5078157;28;20949;-92
2022/11/09 10:19:39;;;;;;;2.07;1.33;;;28.00;57.20;;;;;;5078013;28;20431;-92
2022/11/09 10:22:15;;;;;;;2.07;1.10;;;27.90;57.30;;;;;;5052798;28;20479;-96
2022/11/09 10:24:51;;;;;;;1.77;1.10;;;27.60;57.40;;;;;;5078462;28;20517;-93
2022/11/09 10:27:26;;;;;;;1.77;1.00;;;27.40;57.80;;;;;;5077016;28;20437;-95
2022/11/09 10:29:55;;;;;;;1.60;1.07;;;27.20;58.10;;;;;;5077711;28;20530;-93
2022/11/09 10:32:24;;;;;;;2.20;1.10;;;27.10;58.50;;;;;;5077723;28;20445;-93
2022/11/09 10:34:54;;;;;;;1.63;1.00;;;27.00;58.60;;;;;;5078139;28;20441;-95
2022/11/09 10:37:28;;;;;;;1.20;1.10;;;26.90;59.00;;;;;;5077729;28;20545;-94
2022/11/09 10:40:02;;;;;;;7.30;1.50;;;26.80;59.30;;;;;;5078369;28;21000;-92
2022/11/09 10:42:28;;;;;;;8.10;1.30;;;26.70;59.00;;;;;;5078041;28;20460;-92
2022/11/09 10:44:55;;;;;;;5.80;1.50;;;26.60;59.30;;;;;;5088567;28;20428;-92
2022/11/09 10:47:22;;;;;;;3.13;1.10;;;26.60;59.50;;;;;;5101400;28;20457;-93
2022/11/09 10:50:07;;;;;;;6.70;1.20;;;26.50;59.60;;;;;;5101085;28;20424;-92
2022/11/09 10:52:40;;;;;;;3.53;1.20;;;26.50;59.60;;;;;;5088479;28;20897;-92
2022/11/09 10:55:21;;;;;;;3.33;1.67;;;26.50;59.80;;;;;;5077005;28;20465;-92
2022/11/09 10:57:56;;;;;;;6.77;1.27;;;26.50;59.90;;;;;;5077100;28;20444;-92
2022/11/09 11:00:23;;;;;;;2.80;1.13;;;26.50;60.00;;;;;;5077612;28;20472;-91
2022/11/09 11:02:51;;;;;;;2.47;1.10;;;26.40;60.00;;;;;;5077115;28;20445;-92
2022/11/09 11:05:25;;;;;;;2.93;1.10;;;26.40;60.00;;;;;;5077875;28;20519;-92
2022/11/09 11:07:54;;;;;;;1.90;1.00;;;26.40;60.10;;;;;;5079056;28;20567;-92
2022/11/09 11:10:21;;;;;;;1.73;1.00;;;26.50;60.00;;;;;;5093377;28;20436;-93
2022/11/09 11:12:57;;;;;;;1.10;0.80;;;26.50;60.00;;;;;;5090155;28;20500;-91
2022/11/09 11:15:26;;;;;;;1.60;1.10;;;26.50;60.00;;;;;;5076531;28;20436;-92
2022/11/09 11:18:01;;;;;;;2.07;1.20;;;26.50;60.10;;;;;;5075804;28;20445;-93
2022/11/09 11:20:30;;;;;;;1.57;0.93;;;26.40;60.10;;;;;;5076767;28;20976;-93
2022/11/09 11:23:12;;;;;;;3.77;1.13;;;26.40;60.30;;;;;;5075572;28;20468;-92
2022/11/09 11:25:54;;;;;;;1.10;0.80;;;26.30;60.30;;;;;;5076486;28;20444;-93
2022/11/09 11:28:26;;;;;;;2.93;1.33;;;26.20;60.50;;;;;;5075991;28;20444;-92
2022/11/09 11:30:53;;;;;;;2.07;0.90;;;26.20;60.70;;;;;;5075634;28;20444;-93
2022/11/09 11:33:21;;;;;;;1.30;0.93;;;26.20;60.60;;;;;;5075705;28;20459;-92
2022/11/09 11:35:54;;;;;;;1.57;0.90;;;26.20;60.60;;;;;;5075519;28;20448;-92
2022/11/09 11:38:30;;;;;;;1.30;1.03;;;26.20;60.80;;;;;;5075463;28;20433;-92
2022/11/09 11:41:04;;;;;;;2.47;1.20;;;26.20;60.70;;;;;;5076179;28;20992;-92
2022/11/09 11:43:45;;;;;;;1.47;0.90;;;26.20;60.70;;;;;;5075516;28;20459;-92
2022/11/09 11:46:22;;;;;;;1.37;1.10;;;26.30;60.90;;;;;;5075230;28;20528;-92
2022/11/09 11:49:17;;;;;;;1.47;0.97;;;26.20;60.70;;;;;;5075630;28;20948;-93
2022/11/09 11:51:53;;;;;;;3.60;1.20;;;26.20;60.50;;;;;;5074926;28;20472;-92
2022/11/09 11:54:26;;;;;;;2.53;0.90;;;26.20;60.80;;;;;;5074876;28;20786;-93
2022/11/09 11:56:59;;;;;;;1.80;1.10;;;26.10;60.80;;;;;;5075244;28;20441;-92
2022/11/09 11:59:59;;;;;;;1.60;0.97;;;26.10;60.80;;;;;;5075093;28;20916;-93
2022/11/09 12:03:01;;;;;;;1.60;0.97;;;26.10;60.80;;;;;;5067074;28;20444;-92
2022/11/09 12:05:53;;;;;;;1.43;0.90;;;26.10;60.90;;;;;;5062109;28;21008;-93
2022/11/09 12:08:27;;;;;;;1.40;1.07;;;26.10;60.90;;;;;;5075719;28;20435;-93
2022/11/09 12:11:02;;;;;;;1.30;0.97;;;26.10;61.00;;;;;;5074942;28;20485;-92
2022/11/09 12:13:54;;;;;;;1.63;0.97;;;26.00;60.80;;;;;;5075662;28;20445;-92
2022/11/09 12:16:56;;;;;;;4.30;0.90;;;26.00;61.00;;;;;;5074779;28;20454;-92
2022/11/09 12:19:43;;;;;;;2.23;1.07;;;26.00;61.10;;;;;;5075489;28;20901;-92
2022/11/09 12:22:16;;;;;;;1.50;1.00;;;26.00;61.30;;;;;;5075223;28;20542;-91
2022/11/09 12:24:51;;;;;;;1.60;0.90;;;26.00;61.30;;;;;;5075514;28;20467;-91
2022/11/09 12:27:46;;;;;;;1.17;0.93;;;26.00;61.40;;;;;;5074546;28;20449;-93
2022/11/09 12:30:16;;;;;;;2.70;1.00;;;26.00;61.30;;;;;;5074809;28;20933;-92
2022/11/09 12:32:51;;;;;;;5.40;1.10;;;26.00;61.40;;;;;;5074292;28;20436;-92
2022/11/09 12:35:27;;;;;;;1.10;0.80;;;26.00;61.40;;;;;;5074710;28;20868;-92
2022/11/09 12:37:56;;;;;;;4.30;1.23;;;26.20;61.60;;;;;;5074566;28;20424;-92
2022/11/09 12:40:26;;;;;;;1.30;0.90;;;26.00;61.50;;;;;;5075432;28;20432;-92
2022/11/09 12:43:00;;;;;;;1.40;1.00;;;26.00;61.70;;;;;;5074725;28;20447;-93
2022/11/09 12:45:31;;;;;;;2.20;1.00;;;26.00;61.50;;;;;;5075245;28;20445;-93
2022/11/09 12:48:04;;;;;;;3.40;1.20;;;26.00;61.60;;;;;;5075376;28;20449;-93
2022/11/09 12:50:32;;;;;;;2.37;1.00;;;26.00;61.60;;;;;;5074329;28;20482;-92
2022/11/09 12:53:01;;;;;;;2.60;1.03;;;26.00;61.70;;;;;;5074934;28;20471;-93
2022/11/09 12:55:36;;;;;;;2.00;1.10;;;25.90;61.60;;;;;;5074953;28;20807;-92
2022/11/09 12:58:04;;;;;;;2.50;1.17;;;25.90;61.60;;;;;;5074797;28;20766;-93
2022/11/09 13:00:47;;;;;;;2.33;1.23;;;26.00;61.70;;;;;;5074457;28;20457;-93